Time;durP1;ratioP1;P1;durP2;ratioP2;P2;SDS_P1;SDS_P2;PMS_P1;PMS_P2;Temp;Humidity;BMP_temperature;BMP_pressure;BME280_temperature;BME280_humidity;BME280_pressure;Samples;Min_cycle;Max_cycle;Signal;HPM_P1;HPM_P2
2021/04/29 00:02:42;;;;;;;32.08;15.65;;;16.50;92.50;;;;;;5011308;28;20053;-69
2021/04/29 00:05:46;;;;;;;31.17;15.38;;;16.30;92.40;;;;;;5011415;28;20397;-69
2021/04/29 00:09:04;;;;;;;35.03;15.23;;;16.30;92.30;;;;;;5011071;28;20485;-69
2021/04/29 00:12:09;;;;;;;36.97;17.75;;;16.20;92.50;;;;;;5011065;28;20040;-69
2021/04/29 00:15:15;;;;;;;42.20;17.98;;;16.20;93.00;;;;;;5010894;28;20073;-69
2021/04/29 00:18:20;;;;;;;33.25;16.00;;;16.20;93.40;;;;;;5022010;28;20135;-69
2021/04/29 00:21:24;;;;;;;34.28;16.20;;;16.20;92.90;;;;;;5011695;28;20049;-69
2021/04/29 00:24:28;;;;;;;31.90;15.80;;;16.20;92.70;;;;;;5011002;28;20061;-70
2021/04/29 00:27:32;;;;;;;34.00;15.80;;;16.20;92.50;;;;;;5010901;28;20037;-69
2021/04/29 00:30:37;;;;;;;33.70;16.38;;;16.10;92.70;;;;;;5011259;28;20210;-69
2021/04/29 00:33:41;;;;;;;39.22;17.00;;;16.00;92.80;;;;;;5010879;28;20389;-69
2021/04/29 00:36:44;;;;;;;38.03;16.85;;;15.90;93.20;;;;;;5011383;28;20045;-69
2021/04/29 00:39:49;;;;;;;36.92;16.08;;;15.80;93.50;;;;;;5011152;28;20037;-69
2021/04/29 00:42:53;;;;;;;40.53;16.92;;;15.80;93.80;;;;;;5011015;28;20049;-69
2021/04/29 00:45:57;;;;;;;39.97;16.67;;;15.80;93.80;;;;;;5010873;28;20045;-69
2021/04/29 00:49:03;;;;;;;34.42;15.60;;;15.80;93.80;;;;;;5010912;28;20049;-69
2021/04/29 00:52:07;;;;;;;38.92;17.42;;;15.80;93.40;;;;;;5011486;28;20041;-69
2021/04/29 00:55:11;;;;;;;36.53;16.73;;;15.70;93.40;;;;;;5010861;28;20048;-69
2021/04/29 00:58:15;;;;;;;34.53;17.05;;;15.70;93.60;;;;;;5011211;28;20061;-69
2021/04/29 01:01:21;;;;;;;34.78;16.15;;;15.70;93.40;;;;;;5010649;28;20196;-69
2021/04/29 01:04:42;;;;;;;38.15;18.02;;;15.70;93.40;;;;;;5011362;28;20045;-69
2021/04/29 01:08:20;;;;;;;33.40;16.80;;;15.70;93.80;;;;;;5011930;28;20050;-69
2021/04/29 01:11:29;;;;;;;43.13;15.93;;;15.80;93.60;;;;;;5011025;28;20057;-69
2021/04/29 01:14:35;;;;;;;32.45;16.65;;;15.80;93.00;;;;;;5010863;28;20049;-69
2021/04/29 01:17:43;;;;;;;34.50;16.20;;;15.70;93.30;;;;;;5011103;28;20397;-69
2021/04/29 01:21:01;;;;;;;29.45;15.07;;;15.70;93.10;;;;;;5011518;28;20377;-69
2021/04/29 01:24:08;;;;;;;27.02;14.85;;;15.70;92.80;;;;;;5010728;28;20060;-69
2021/04/29 01:27:13;;;;;;;35.45;14.52;;;15.60;92.40;;;;;;5011001;28;20045;-69
2021/04/29 01:30:18;;;;;;;38.97;15.65;;;15.50;92.70;;;;;;5010620;28;20094;-69
2021/04/29 01:33:24;;;;;;;34.38;15.30;;;15.50;93.40;;;;;;5010693;28;20049;-69
2021/04/29 01:36:28;;;;;;;33.75;15.65;;;15.50;93.50;;;;;;5013345;28;20551;-69
2021/04/29 01:39:34;;;;;;;37.13;14.93;;;15.60;93.20;;;;;;5014624;28;20048;-69
2021/04/29 01:42:39;;;;;;;32.40;14.77;;;15.70;93.50;;;;;;5013587;28;20040;-69
2021/04/29 01:45:43;;;;;;;30.38;14.85;;;15.70;92.80;;;;;;5013054;28;20117;-69
2021/04/29 01:48:48;;;;;;;39.20;16.52;;;15.80;92.80;;;;;;5013583;28;20053;-69
2021/04/29 01:51:53;;;;;;;29.23;14.48;;;15.80;92.60;;;;;;5013511;28;20385;-69
2021/04/29 01:54:58;;;;;;;31.88;14.80;;;15.80;92.30;;;;;;5013594;28;20033;-69
2021/04/29 01:58:02;;;;;;;35.17;15.80;;;15.70;92.50;;;;;;5013486;28;20044;-69
2021/04/29 02:01:06;;;;;;;32.95;15.05;;;15.60;92.70;;;;;;5013738;28;20044;-69
2021/04/29 02:04:12;;;;;;;31.70;15.38;;;15.60;93.00;;;;;;5012732;28;20045;-69
2021/04/29 02:07:16;;;;;;;30.08;15.65;;;15.60;93.20;;;;;;5013926;28;20045;-69
2021/04/29 02:10:20;;;;;;;30.27;15.40;;;15.50;93.00;;;;;;5013402;28;20129;-69
2021/04/29 02:13:27;;;;;;;37.40;16.02;;;15.40;93.10;;;;;;5012488;28;20073;-70
2021/04/29 02:16:44;;;;;;;33.95;14.95;;;15.30;93.40;;;;;;5013803;28;20052;-70
2021/04/29 02:19:49;;;;;;;35.88;16.27;;;15.20;93.70;;;;;;5013221;28;20049;-69
2021/04/29 02:22:54;;;;;;;38.80;16.38;;;15.20;93.60;;;;;;5013104;28;20512;-70
2021/04/29 02:26:00;;;;;;;44.85;18.58;;;15.20;93.70;;;;;;5013309;28;20045;-70
2021/04/29 02:29:05;;;;;;;46.75;19.17;;;15.10;93.90;;;;;;5012975;28;20049;-70
2021/04/29 02:32:10;;;;;;;42.75;18.65;;;15.00;94.40;;;;;;5012795;28;20504;-70
2021/04/29 02:35:16;;;;;;;37.03;17.52;;;15.00;94.40;;;;;;5013382;28;20053;-69
2021/04/29 02:38:20;;;;;;;42.83;18.83;;;15.10;94.10;;;;;;5013111;28;20068;-69
2021/04/29 02:41:25;;;;;;;35.83;17.40;;;15.10;94.00;;;;;;5012919;28;20045;-69
2021/04/29 02:44:29;;;;;;;47.45;16.85;;;15.10;93.90;;;;;;5012613;28;20037;-69
2021/04/29 02:47:34;;;;;;;33.30;17.25;;;15.10;93.30;;;;;;5022971;28;20507;-69
2021/04/29 02:50:43;;;;;;;36.28;17.90;;;15.10;93.40;;;;;;5012629;28;20052;-69
2021/04/29 02:53:48;;;;;;;34.17;16.10;;;15.00;93.60;;;;;;5012024;28;20045;-69
2021/04/29 02:56:52;;;;;;;39.83;16.73;;;14.90;93.50;;;;;;5012778;28;20121;-69
2021/04/29 02:59:56;;;;;;;34.28;17.23;;;14.90;93.70;;;;;;5012592;28;20045;-70
2021/04/29 03:03:01;;;;;;;50.25;17.25;;;14.80;93.90;;;;;;5012474;28;20045;-70
2021/04/29 03:06:05;;;;;;;32.95;17.13;;;14.70;94.10;;;;;;5012552;28;20045;-69
2021/04/29 03:09:09;;;;;;;38.05;16.85;;;14.80;94.30;;;;;;5012186;28;20048;-69
2021/04/29 03:12:13;;;;;;;38.78;16.08;;;14.80;94.10;;;;;;5012266;28;20057;-69
2021/04/29 03:15:23;;;;;;;31.88;17.52;;;14.80;93.90;;;;;;5011427;28;20048;-70
2021/04/29 03:18:35;;;;;;;30.33;15.73;;;14.80;93.80;;;;;;5012297;28;20045;-70
2021/04/29 03:21:42;;;;;;;33.35;16.25;;;14.80;93.50;;;;;;5012291;28;20060;-69
2021/04/29 03:24:48;;;;;;;33.90;15.45;;;14.70;93.50;;;;;;5012064;28;20040;-70
2021/04/29 03:27:52;;;;;;;32.47;15.32;;;14.80;93.40;;;;;;5012159;28;20389;-69
2021/04/29 03:30:56;;;;;;;32.50;15.13;;;14.80;93.30;;;;;;5012112;28;20508;-70
2021/04/29 03:34:03;;;;;;;35.30;16.25;;;14.80;93.10;;;;;;5012264;28;20045;-69
2021/04/29 03:37:07;;;;;;;34.03;15.32;;;14.70;93.10;;;;;;5012297;28;20053;-69
2021/04/29 03:40:14;;;;;;;29.52;14.55;;;14.70;93.50;;;;;;5011967;28;20049;-69
2021/04/29 03:43:18;;;;;;;24.15;13.38;;;14.70;93.00;;;;;;5011914;28;20519;-69
2021/04/29 03:46:22;;;;;;;37.92;15.65;;;14.60;93.50;;;;;;5011317;28;20048;-69
2021/04/29 03:49:26;;;;;;;36.92;15.85;;;14.60;93.80;;;;;;5011356;28;20053;-69
2021/04/29 03:52:30;;;;;;;29.05;15.00;;;14.60;94.20;;;;;;5011843;28;20053;-69
2021/04/29 03:55:34;;;;;;;36.88;16.38;;;14.60;93.30;;;;;;5022679;28;20045;-70
2021/04/29 03:58:38;;;;;;;36.15;16.13;;;14.50;93.70;;;;;;5011051;28;20056;-70
2021/04/29 04:01:43;;;;;;;33.88;15.73;;;14.50;94.30;;;;;;5010733;28;20037;-69
2021/04/29 04:04:47;;;;;;;34.92;16.77;;;14.60;93.80;;;;;;5010834;28;20053;-69
2021/04/29 04:07:51;;;;;;;33.28;15.68;;;14.60;93.90;;;;;;5011566;28;20049;-69
2021/04/29 04:10:54;;;;;;;32.33;16.05;;;14.60;94.30;;;;;;4999138;28;20057;-69
2021/04/29 04:13:59;;;;;;;47.38;16.48;;;14.70;93.80;;;;;;5010933;28;20057;-69
2021/04/29 04:17:03;;;;;;;32.00;13.95;;;14.70;93.80;;;;;;5011362;28;20041;-69
2021/04/29 04:20:08;;;;;;;26.45;13.27;;;14.70;93.30;;;;;;5011285;28;20033;-69
2021/04/29 04:23:12;;;;;;;32.13;12.43;;;14.70;93.30;;;;;;5011214;28;20045;-69
2021/04/29 04:26:16;;;;;;;26.38;13.10;;;14.70;93.00;;;;;;5011472;28;20049;-69
2021/04/29 04:29:20;;;;;;;27.10;13.43;;;14.70;92.90;;;;;;5011301;28;20045;-68
2021/04/29 04:32:24;;;;;;;24.15;12.82;;;14.70;92.80;;;;;;5011299;28;20515;-69
2021/04/29 04:35:28;;;;;;;32.72;13.32;;;14.80;92.70;;;;;;5011407;28;20425;-69
2021/04/29 04:38:32;;;;;;;30.40;12.65;;;14.80;92.40;;;;;;5011325;28;20041;-69
2021/04/29 04:41:36;;;;;;;25.65;13.68;;;14.90;92.10;;;;;;5011388;28;20041;-69
2021/04/29 04:44:40;;;;;;;29.65;15.18;;;14.90;92.10;;;;;;5011226;28;20071;-69
2021/04/29 04:47:44;;;;;;;28.23;14.85;;;14.90;92.20;;;;;;5011419;28;20049;-70
2021/04/29 04:50:51;;;;;;;28.73;14.55;;;15.00;91.90;;;;;;5011154;28;20409;-69
2021/04/29 04:53:55;;;;;;;32.00;15.55;;;15.00;91.80;;;;;;5011330;28;20590;-69
2021/04/29 04:57:00;;;;;;;28.65;16.13;;;15.10;92.00;;;;;;5010971;28;20053;-69
2021/04/29 05:00:05;;;;;;;33.17;16.80;;;15.20;92.00;;;;;;5010749;28;20065;-69
2021/04/29 05:03:13;;;;;;;34.30;15.63;;;15.30;92.00;;;;;;5010788;28;20421;-71
2021/04/29 05:06:17;;;;;;;25.75;12.85;;;15.60;91.80;;;;;;5011038;28;20397;-70
2021/04/29 05:09:21;;;;;;;32.78;17.17;;;16.10;93.30;;;;;;5011874;28;20048;-70
2021/04/29 05:12:25;;;;;;;47.13;17.33;;;16.40;90.50;;;;;;5014457;28;20045;-71
2021/04/29 05:15:34;;;;;;;29.42;15.63;;;16.60;90.00;;;;;;5015311;28;20053;-72
2021/04/29 05:18:38;;;;;;;31.83;15.30;;;16.80;90.00;;;;;;5014759;28;20048;-71
2021/04/29 05:21:42;;;;;;;32.20;15.15;;;17.00;90.00;;;;;;5015163;28;20049;-72
2021/04/29 05:24:50;;;;;;;42.17;13.98;;;17.40;89.30;;;;;;5015006;28;20040;-72
2021/04/29 05:28:00;;;;;;;47.22;14.40;;;17.80;88.20;;;;;;5014629;28;20049;-72
2021/04/29 05:31:03;;;;;;;35.55;15.00;;;18.00;86.80;;;;;;5014913;28;20060;-72
2021/04/29 05:34:07;;;;;;;27.77;12.93;;;18.10;86.40;;;;;;5013844;28;20041;-72
2021/04/29 05:37:11;;;;;;;31.45;12.65;;;18.20;85.90;;;;;;5014373;28;20508;-70
2021/04/29 05:40:16;;;;;;;33.83;11.95;;;18.30;86.50;;;;;;5014218;28;20037;-71
2021/04/29 05:43:20;;;;;;;31.77;12.77;;;18.50;85.20;;;;;;5014187;28;20049;-68
2021/04/29 05:46:26;;;;;;;30.10;12.70;;;18.60;84.90;;;;;;5014254;28;20033;-69
2021/04/29 05:49:29;;;;;;;28.77;11.77;;;18.60;84.90;;;;;;5013299;28;20053;-68
2021/04/29 05:52:33;;;;;;;34.35;12.55;;;18.80;85.00;;;;;;5013955;28;20532;-69
2021/04/29 05:55:37;;;;;;;32.35;11.82;;;19.10;84.40;;;;;;5014295;28;20496;-69
2021/04/29 05:58:42;;;;;;;32.58;12.23;;;19.40;83.40;;;;;;5014179;28;20052;-68
2021/04/29 06:01:47;;;;;;;26.65;12.15;;;19.70;82.80;;;;;;5014246;28;20041;-68
2021/04/29 06:04:50;;;;;;;34.55;12.00;;;20.10;81.50;;;;;;5013997;28;20049;-69
2021/04/29 06:07:56;;;;;;;31.45;12.77;;;20.40;80.80;;;;;;5014162;28;20108;-68
2021/04/29 06:11:00;;;;;;;29.95;11.20;;;20.80;79.30;;;;;;5013551;28;20053;-68
2021/04/29 06:14:04;;;;;;;36.17;11.48;;;21.10;78.40;;;;;;5013568;28;20069;-69
2021/04/29 06:17:08;;;;;;;24.95;13.20;;;21.00;78.00;;;;;;5013919;28;20409;-70
2021/04/29 06:20:13;;;;;;;31.30;12.60;;;20.70;77.10;;;;;;5012706;28;20061;-69
2021/04/29 06:23:17;;;;;;;33.40;13.20;;;20.30;78.10;;;;;;5024478;28;20040;-70
2021/04/29 06:26:21;;;;;;;29.50;12.15;;;19.70;79.60;;;;;;5013679;28;20044;-69
2021/04/29 06:29:26;;;;;;;31.10;12.60;;;19.20;82.30;;;;;;5013681;28;20061;-68
2021/04/29 06:32:30;;;;;;;31.85;12.82;;;18.80;84.00;;;;;;5013232;28;20049;-69
2021/04/29 06:35:35;;;;;;;33.88;11.98;;;18.60;85.60;;;;;;5013351;28;20068;-69
2021/04/29 06:38:39;;;;;;;29.55;12.25;;;18.80;85.80;;;;;;5013137;28;20049;-70
2021/04/29 06:41:44;;;;;;;29.00;11.20;;;19.30;85.00;;;;;;5013082;28;20041;-71
2021/04/29 06:44:48;;;;;;;44.13;11.60;;;19.30;83.70;;;;;;5013060;28;20057;-68
2021/04/29 06:47:54;;;;;;;26.85;10.77;;;19.30;84.00;;;;;;5013508;28;20072;-69
2021/04/29 06:50:58;;;;;;;23.15;10.18;;;19.20;84.00;;;;;;5012045;28;20057;-69
2021/04/29 06:54:02;;;;;;;29.48;9.52;;;19.30;83.30;;;;;;5013157;28;20047;-69
2021/04/29 06:57:06;;;;;;;34.70;11.35;;;19.20;83.70;;;;;;5012371;28;20049;-70
2021/04/29 07:00:11;;;;;;;28.50;10.63;;;19.30;84.40;;;;;;5012778;28;20397;-70
2021/04/29 07:03:15;;;;;;;30.98;9.15;;;19.30;84.40;;;;;;5012785;28;20401;-69
2021/04/29 07:06:19;;;;;;;29.95;10.50;;;19.70;83.10;;;;;;5012553;28;20409;-69
2021/04/29 07:09:23;;;;;;;39.75;11.60;;;20.00;82.30;;;;;;5012720;28;20053;-69
2021/04/29 07:12:27;;;;;;;27.08;9.98;;;20.00;81.80;;;;;;5012386;28;20052;-67
2021/04/29 07:15:31;;;;;;;31.65;9.68;;;20.00;82.00;;;;;;5012611;28;20068;-68
2021/04/29 07:18:35;;;;;;;33.58;9.85;;;20.00;81.90;;;;;;5022628;28;20556;-67
2021/04/29 07:21:38;;;;;;;29.85;9.68;;;20.30;81.50;;;;;;5012254;28;20065;-67
2021/04/29 07:24:43;;;;;;;47.40;11.02;;;20.70;80.90;;;;;;5011200;28;20049;-68
2021/04/29 07:27:47;;;;;;;31.48;9.48;;;21.30;79.30;;;;;;5012217;28;20049;-67
2021/04/29 07:30:51;;;;;;;29.33;10.38;;;21.60;77.90;;;;;;5012138;28;20129;-67
2021/04/29 07:33:55;;;;;;;30.30;9.07;;;22.00;77.10;;;;;;5011981;28;20040;-67
2021/04/29 07:37:00;;;;;;;26.15;8.25;;;22.10;75.90;;;;;;5011933;28;20508;-67
2021/04/29 07:40:05;;;;;;;39.10;9.50;;;22.00;76.00;;;;;;5022468;28;20181;-68
2021/04/29 07:43:12;;;;;;;30.40;9.43;;;21.80;76.20;;;;;;5012114;28;20049;-67
2021/04/29 07:46:16;;;;;;;36.08;8.27;;;21.60;77.00;;;;;;5012155;28;20045;-66
2021/04/29 07:49:20;;;;;;;24.00;7.65;;;21.40;77.20;;;;;;5011670;28;20048;-67
2021/04/29 07:52:24;;;;;;;24.70;7.28;;;21.30;78.30;;;;;;5012083;28;20049;-68
2021/04/29 07:55:29;;;;;;;27.83;8.70;;;21.20;78.60;;;;;;5022296;28;20061;-68
2021/04/29 07:58:32;;;;;;;20.75;7.25;;;21.10;78.80;;;;;;5011830;28;20045;-68
2021/04/29 08:01:38;;;;;;;26.33;8.27;;;20.80;79.00;;;;;;5011711;28;20048;-67
2021/04/29 08:04:46;;;;;;;36.45;9.40;;;20.80;79.90;;;;;;5011671;28;20050;-67
2021/04/29 08:07:51;;;;;;;28.30;9.85;;;20.70;79.30;;;;;;5011091;28;20053;-66
2021/04/29 08:10:55;;;;;;;19.98;7.45;;;20.70;79.60;;;;;;5011414;28;20056;-70
2021/04/29 08:13:59;;;;;;;26.23;7.60;;;20.60;79.70;;;;;;5011205;28;20409;-66
2021/04/29 08:17:03;;;;;;;21.48;7.05;;;20.60;79.70;;;;;;5011842;28;20500;-68
2021/04/29 08:20:07;;;;;;;19.23;6.43;;;20.50;79.30;;;;;;5011709;28;20045;-68
2021/04/29 08:23:11;;;;;;;24.13;7.22;;;20.40;79.40;;;;;;5011643;28;20065;-69
2021/04/29 08:26:15;;;;;;;21.88;6.35;;;20.30;79.40;;;;;;5011547;28;20041;-68
2021/04/29 08:29:19;;;;;;;21.60;5.95;;;20.20;79.30;;;;;;5011029;28;20073;-68
2021/04/29 08:32:23;;;;;;;21.30;6.53;;;20.20;78.70;;;;;;5011266;28;20436;-66
2021/04/29 08:35:27;;;;;;;23.52;6.55;;;20.10;79.80;;;;;;5011771;28;20053;-70
2021/04/29 08:38:33;;;;;;;33.28;7.78;;;19.90;81.50;;;;;;5011595;28;20052;-70
2021/04/29 08:41:37;;;;;;;30.48;7.80;;;19.60;85.00;;;;;;5011457;28;20544;-68
2021/04/29 08:44:42;;;;;;;24.95;7.78;;;19.40;86.60;;;;;;5012810;28;20041;-68
2021/04/29 08:47:51;;;;;;;24.92;7.72;;;19.20;87.20;;;;;;5015244;28;20053;-66
2021/04/29 08:50:55;;;;;;;28.67;8.20;;;19.20;88.20;;;;;;5015156;28;20057;-67
2021/04/29 08:54:00;;;;;;;25.40;9.13;;;19.10;87.40;;;;;;5025405;28;20409;-71
2021/04/29 08:57:05;;;;;;;28.05;10.48;;;18.90;89.40;;;;;;5014267;28;20053;-67
2021/04/29 09:00:11;;;;;;;33.75;10.75;;;18.80;90.20;;;;;;5014783;28;20053;-68
2021/04/29 09:03:15;;;;;;;26.50;9.75;;;18.80;90.20;;;;;;5014956;28;20049;-68
2021/04/29 09:06:40;;;;;;;31.48;10.15;;;19.00;90.20;;;;;;5015000;28;20385;-67
2021/04/29 09:09:48;;;;;;;32.47;12.00;;;19.10;90.20;;;;;;5014782;28;20085;-68
2021/04/29 09:12:53;;;;;;;34.85;11.90;;;19.30;90.40;;;;;;5014829;28;20049;-67
2021/04/29 09:16:07;;;;;;;29.10;12.27;;;19.40;89.60;;;;;;5014845;28;20072;-68
2021/04/29 09:19:22;;;;;;;38.35;12.90;;;19.50;89.90;;;;;;5014951;28;20037;-66
2021/04/29 09:22:26;;;;;;;93.60;17.75;;;19.60;89.30;;;;;;5014675;28;20053;-68
2021/04/29 09:25:31;;;;;;;31.02;11.65;;;19.50;88.30;;;;;;5014943;28;20049;-67
2021/04/29 09:28:42;;;;;;;28.13;10.77;;;19.60;88.90;;;;;;5014848;28;20049;-67
2021/04/29 09:31:47;;;;;;;28.60;10.18;;;19.70;87.40;;;;;;5014403;28;20085;-67
2021/04/29 09:34:52;;;;;;;29.75;10.05;;;19.70;87.50;;;;;;5013284;28;20037;-68
2021/04/29 09:38:01;;;;;;;28.48;10.32;;;19.80;87.30;;;;;;5014602;28;20056;-68
2021/04/29 09:41:07;;;;;;;28.52;10.93;;;19.90;87.30;;;;;;5014124;28;20044;-70
2021/04/29 09:44:23;;;;;;;31.00;10.73;;;20.00;86.90;;;;;;5014302;28;20045;-67
2021/04/29 09:47:27;;;;;;;33.42;10.32;;;20.00;85.70;;;;;;5014057;28;20049;-68
2021/04/29 09:50:38;;;;;;;32.85;10.38;;;20.10;85.40;;;;;;5013945;28;20077;-68
2021/04/29 09:53:49;;;;;;;34.75;10.93;;;20.10;86.10;;;;;;5013202;28;20041;-68
2021/04/29 09:57:06;;;;;;;32.13;11.30;;;20.20;86.10;;;;;;5012412;28;20516;-67
2021/04/29 10:00:11;;;;;;;21.55;8.80;;;20.20;85.70;;;;;;5014096;28;20500;-69
2021/04/29 10:03:17;;;;;;;26.50;9.07;;;20.30;84.70;;;;;;5012937;28;20041;-69
2021/04/29 10:06:22;;;;;;;24.48;10.18;;;20.30;84.60;;;;;;5013845;28;20041;-68
2021/04/29 10:09:31;;;;;;;29.80;9.20;;;20.30;83.70;;;;;;5013999;28;20037;-69
2021/04/29 10:12:36;;;;;;;24.67;9.60;;;20.30;83.20;;;;;;5013201;28;20045;-69
2021/04/29 10:15:43;;;;;;;26.77;10.07;;;20.30;84.00;;;;;;5013178;28;20049;-67
2021/04/29 10:18:49;;;;;;;23.65;9.05;;;20.40;84.10;;;;;;5013841;28;20040;-68
2021/04/29 10:21:53;;;;;;;25.08;8.35;;;20.40;83.70;;;;;;5014034;28;20041;-68
2021/04/29 10:24:57;;;;;;;22.50;9.40;;;20.50;83.30;;;;;;5024167;28;20053;-70
2021/04/29 10:28:03;;;;;;;19.15;8.15;;;20.50;83.10;;;;;;5012945;28;20041;-67
2021/04/29 10:31:20;;;;;;;26.73;10.10;;;20.50;82.80;;;;;;5013727;28;20072;-69
2021/04/29 10:34:36;;;;;;;26.15;9.35;;;20.60;81.90;;;;;;5013926;28;20049;-68
2021/04/29 10:37:52;;;;;;;26.38;9.00;;;20.60;81.90;;;;;;5013695;28;20096;-69
2021/04/29 10:41:02;;;;;;;26.58;8.88;;;20.70;82.00;;;;;;5024285;28;20041;-68
2021/04/29 10:44:18;;;;;;;25.43;9.50;;;20.70;81.60;;;;;;5011345;28;20053;-67
2021/04/29 10:47:31;;;;;;;27.13;10.07;;;20.70;80.70;;;;;;5012758;28;20045;-66
2021/04/29 10:50:46;;;;;;;26.45;9.18;;;20.70;81.10;;;;;;5013118;28;20409;-66
2021/04/29 10:53:50;;;;;;;30.95;9.30;;;20.70;81.50;;;;;;5012491;28;20045;-67
2021/04/29 10:57:07;;;;;;;26.33;8.45;;;20.70;81.60;;;;;;5012880;28;20052;-68
2021/04/29 11:00:12;;;;;;;32.90;12.45;;;20.70;81.90;;;;;;5013025;28;20397;-67
2021/04/29 11:03:31;;;;;;;32.65;10.10;;;20.70;81.80;;;;;;5012954;28;20500;-65
2021/04/29 11:06:35;;;;;;;33.83;10.35;;;20.60;82.10;;;;;;5012127;28;20041;-67
2021/04/29 11:09:40;;;;;;;32.45;9.60;;;20.40;82.30;;;;;;5012356;28;20526;-66
2021/04/29 11:12:51;;;;;;;22.80;8.52;;;20.30;82.90;;;;;;5012644;28;20052;-66
2021/04/29 11:16:01;;;;;;;31.92;8.95;;;20.30;83.40;;;;;;5022719;28;20072;-67
2021/04/29 11:19:05;;;;;;;27.63;9.15;;;20.40;82.70;;;;;;5011845;28;20053;-66
2021/04/29 11:22:12;;;;;;;27.67;8.05;;;20.40;83.20;;;;;;5012296;28;20044;-66
2021/04/29 11:25:16;;;;;;;23.05;8.25;;;20.40;82.60;;;;;;5011692;28;20405;-65
2021/04/29 11:28:28;;;;;;;24.95;8.30;;;20.40;81.10;;;;;;5012495;28;20049;-64
2021/04/29 11:31:38;;;;;;;18.95;6.53;;;20.40;80.70;;;;;;5011984;28;20061;-65
2021/04/29 11:34:45;;;;;;;21.65;6.85;;;20.50;80.00;;;;;;5011539;28;20052;-65
2021/04/29 11:37:49;;;;;;;19.27;6.53;;;20.50;79.80;;;;;;5012200;28;20048;-64
2021/04/29 11:40:53;;;;;;;26.25;6.82;;;20.60;78.60;;;;;;5012299;28;20045;-65
2021/04/29 11:44:02;;;;;;;21.60;6.68;;;20.70;78.20;;;;;;5011496;28;20053;-66
2021/04/29 11:47:14;;;;;;;21.10;7.38;;;20.80;77.70;;;;;;5012148;28;20041;-68
2021/04/29 11:50:20;;;;;;;;;;;20.90;77.30;;;;;;5022924;28;20061;-66
2021/04/29 11:53:28;;;;;;;20.83;6.45;;;21.00;77.40;;;;;;5022405;28;19917;-63
2021/04/29 11:56:47;;;;;;;30.95;7.88;;;21.10;76.50;;;;;;5011515;28;20064;-64
2021/04/29 11:59:54;;;;;;;16.55;6.18;;;21.10;76.20;;;;;;5011757;28;20040;-64
2021/04/29 12:03:00;;;;;;;19.75;7.47;;;21.10;76.30;;;;;;5011546;28;20397;-66
2021/04/29 12:06:04;;;;;;;15.48;6.30;;;21.20;76.90;;;;;;5011702;28;20053;-64
2021/04/29 12:09:12;;;;;;;16.90;6.50;;;21.40;76.50;;;;;;5011964;28;20060;-65
2021/04/29 12:12:18;;;;;;;19.02;8.05;;;21.60;76.30;;;;;;5011301;28;20053;-65
2021/04/29 12:15:24;;;;;;;12.95;5.78;;;21.70;75.60;;;;;;5011720;28;20040;-71
2021/04/29 12:18:29;;;;;;;17.33;6.07;;;21.90;75.50;;;;;;5011428;28;20049;-66
2021/04/29 12:21:34;;;;;;;16.13;6.78;;;22.00;75.40;;;;;;5011482;28;20033;-65
2021/04/29 12:25:00;;;;;;;21.38;7.72;;;22.10;74.80;;;;;;5022418;28;20049;-65
2021/04/29 12:28:18;;;;;;;13.18;5.68;;;22.20;73.50;;;;;;5011497;28;20040;-65
2021/04/29 12:31:23;;;;;;;19.95;7.55;;;22.20;73.80;;;;;;5011358;28;20408;-65
2021/04/29 12:34:28;;;;;;;14.63;5.72;;;22.20;72.80;;;;;;5011593;28;20496;-66
2021/04/29 12:37:32;;;;;;;17.13;7.00;;;22.20;73.30;;;;;;5011568;28;20049;-65
2021/04/29 12:40:37;;;;;;;11.85;5.85;;;22.30;73.90;;;;;;5011428;28;20049;-67
2021/04/29 12:43:41;;;;;;;13.25;6.38;;;22.40;73.60;;;;;;5011206;28;20048;-65
2021/04/29 12:46:45;;;;;;;16.42;6.20;;;22.40;73.20;;;;;;5011460;28;20069;-66
2021/04/29 12:49:59;;;;;;;13.18;5.75;;;22.50;73.00;;;;;;5011364;28;20041;-64
2021/04/29 12:53:12;;;;;;;15.73;6.72;;;22.50;72.70;;;;;;5011137;28;20538;-65
2021/04/29 12:56:25;;;;;;;22.23;8.02;;;22.60;73.10;;;;;;5011542;28;20387;-66
2021/04/29 12:59:29;;;;;;;15.88;6.63;;;22.60;73.40;;;;;;5011047;28;20045;-65
2021/04/29 13:02:33;;;;;;;22.33;7.20;;;22.60;73.60;;;;;;5011291;28;20053;-64
2021/04/29 13:05:37;;;;;;;19.90;7.65;;;22.60;73.20;;;;;;5011239;28;20045;-64
2021/04/29 13:09:01;;;;;;;20.83;8.02;;;22.70;74.10;;;;;;5011379;28;20049;-66
2021/04/29 13:12:20;;;;;;;20.13;8.25;;;22.70;73.40;;;;;;5010817;28;20053;-64
2021/04/29 13:15:29;;;;;;;19.17;7.30;;;22.80;74.20;;;;;;5011318;28;20049;-65
2021/04/29 13:18:33;;;;;;;22.95;8.35;;;22.70;74.20;;;;;;5011257;28;20045;-66
2021/04/29 13:21:38;;;;;;;16.90;6.38;;;22.80;73.90;;;;;;5010951;28;20057;-65
2021/04/29 13:24:44;;;;;;;24.38;8.38;;;22.80;73.50;;;;;;5021876;28;20053;-64
2021/04/29 13:27:50;;;;;;;18.73;6.82;;;22.90;72.80;;;;;;5011248;28;20045;-65
2021/04/29 13:30:55;;;;;;;16.25;6.68;;;22.90;72.10;;;;;;5012859;28;20397;-66
2021/04/29 13:34:02;;;;;;;16.60;6.45;;;23.00;71.60;;;;;;5014521;28;20400;-64
2021/04/29 13:37:06;;;;;;;13.98;5.57;;;22.90;71.70;;;;;;5013584;28;20044;-65
2021/04/29 13:40:14;;;;;;;18.33;6.18;;;22.80;72.00;;;;;;5014634;28;20057;-64
2021/04/29 13:43:18;;;;;;;21.73;7.15;;;22.80;71.90;;;;;;5014581;28;20500;-66
2021/04/29 13:46:22;;;;;;;15.57;6.20;;;22.90;71.70;;;;;;5014490;28;20394;-67
2021/04/29 13:49:27;;;;;;;18.73;6.18;;;22.80;71.60;;;;;;5014005;28;20049;-65
2021/04/29 13:52:31;;;;;;;18.23;6.15;;;22.90;71.40;;;;;;5013917;28;20061;-65
2021/04/29 13:55:35;;;;;;;19.40;6.00;;;22.90;71.00;;;;;;5013909;28;20193;-64
2021/04/29 13:58:40;;;;;;;14.05;5.97;;;22.90;70.40;;;;;;5013399;28;20060;-66
2021/04/29 14:01:44;;;;;;;17.77;6.25;;;22.90;69.60;;;;;;5014037;28;20045;-64
2021/04/29 14:05:00;;;;;;;10.25;5.18;;;22.90;69.20;;;;;;5014084;28;20044;-66
2021/04/29 14:08:04;;;;;;;17.05;6.30;;;22.90;69.50;;;;;;5013877;28;20041;-65
2021/04/29 14:11:09;;;;;;;21.85;6.90;;;22.80;68.80;;;;;;5012633;28;20056;-65
2021/04/29 14:14:13;;;;;;;14.80;4.80;;;22.80;69.20;;;;;;5013596;28;20065;-65
2021/04/29 14:17:17;;;;;;;15.43;5.53;;;22.80;69.60;;;;;;5012984;28;20049;-65
2021/04/29 14:20:21;;;;;;;13.65;4.93;;;22.70;69.30;;;;;;5013701;28;20049;-65
2021/04/29 14:23:25;;;;;;;10.65;4.10;;;22.70;68.50;;;;;;5012960;28;20041;-64
2021/04/29 14:26:32;;;;;;;11.07;3.80;;;22.70;68.40;;;;;;5013348;28;20048;-65
2021/04/29 14:29:36;;;;;;;11.95;4.00;;;22.70;67.80;;;;;;5013329;28;20531;-68
2021/04/29 14:32:40;;;;;;;11.35;4.80;;;22.60;67.50;;;;;;5013190;28;20053;-65
2021/04/29 14:35:44;;;;;;;13.63;4.18;;;22.60;67.60;;;;;;5013457;28;20397;-65
2021/04/29 14:38:48;;;;;;;20.55;4.53;;;22.60;67.70;;;;;;5013122;28;20068;-65
2021/04/29 14:41:52;;;;;;;14.32;4.15;;;22.60;67.90;;;;;;5012019;28;20444;-66
2021/04/29 14:44:58;;;;;;;9.18;3.22;;;22.60;67.60;;;;;;5010820;28;20051;-67
2021/04/29 14:48:08;;;;;;;6.75;3.83;;;22.60;67.40;;;;;;5011918;28;20041;-68
2021/04/29 14:51:12;;;;;;;9.27;3.47;;;22.60;67.00;;;;;;5022604;28;20057;-67
2021/04/29 14:54:16;;;;;;;6.20;3.38;;;22.60;67.30;;;;;;5012471;28;20061;-68
2021/04/29 14:57:21;;;;;;;7.75;3.30;;;22.70;66.80;;;;;;5012941;28;20058;-67
2021/04/29 15:00:29;;;;;;;8.50;3.30;;;22.70;67.00;;;;;;5012578;28;20065;-66
2021/04/29 15:03:33;;;;;;;8.82;3.17;;;22.80;67.20;;;;;;5012904;28;20049;-67
2021/04/29 15:06:37;;;;;;;7.53;3.33;;;22.80;67.10;;;;;;5012454;28;20512;-67
2021/04/29 15:09:41;;;;;;;6.65;2.80;;;22.90;67.00;;;;;;5012567;28;20048;-68
2021/04/29 15:12:46;;;;;;;10.88;2.85;;;22.90;66.90;;;;;;5012220;28;20049;-67
2021/04/29 15:15:50;;;;;;;8.07;2.83;;;22.80;66.70;;;;;;5012476;28;20052;-67
2021/04/29 15:18:57;;;;;;;5.25;2.38;;;22.80;66.40;;;;;;5011634;28;20053;-68
2021/04/29 15:22:01;;;;;;;8.00;2.83;;;22.80;66.30;;;;;;5012275;28;20041;-68
2021/04/29 15:25:06;;;;;;;5.80;3.05;;;22.70;66.30;;;;;;5012292;28;20041;-66
2021/04/29 15:28:10;;;;;;;12.35;3.30;;;22.70;66.00;;;;;;5012327;28;20393;-67
2021/04/29 15:31:15;;;;;;;10.30;2.95;;;22.70;65.60;;;;;;5012188;28;20057;-67
2021/04/29 15:34:19;;;;;;;10.10;3.67;;;22.70;65.50;;;;;;5012267;28;20040;-64
2021/04/29 15:37:23;;;;;;;7.05;2.75;;;22.70;65.40;;;;;;5012067;28;20048;-70
2021/04/29 15:40:28;;;;;;;6.38;2.60;;;22.60;65.40;;;;;;5011987;28;20053;-67
2021/04/29 15:43:32;;;;;;;7.70;2.80;;;22.60;65.60;;;;;;5011950;28;20045;-69
2021/04/29 15:46:37;;;;;;;7.22;3.33;;;22.60;65.70;;;;;;5011916;28;20060;-68
2021/04/29 15:49:41;;;;;;;7.03;3.15;;;22.60;65.80;;;;;;5012153;28;20041;-66
2021/04/29 15:52:44;;;;;;;4.60;2.45;;;22.50;65.50;;;;;;5011366;28;20409;-69